createdAt,value
2023-05-23T00:01:08.560Z,84.90
2023-05-23T00:03:36.802Z,85.30
2023-05-23T00:06:06.743Z,84.40
2023-05-23T00:08:34.507Z,84.40
2023-05-23T00:11:03.068Z,84.90
2023-05-23T00:13:34.830Z,83.40
2023-05-23T00:16:03.024Z,83.90
2023-05-23T00:21:54.184Z,82.60
2023-05-23T00:24:22.366Z,86.00
2023-05-23T00:26:50.022Z,84.90
2023-05-23T00:29:18.546Z,83.30
2023-05-23T00:31:50.447Z,82.50
2023-05-23T00:34:19.287Z,81.60
2023-05-23T00:36:50.831Z,83.30
2023-05-23T00:39:21.934Z,83.90
2023-05-23T00:41:52.144Z,83.50
2023-05-23T00:44:22.027Z,84.00
2023-05-23T00:46:55.762Z,84.00
2023-05-23T00:49:23.999Z,84.20
2023-05-23T00:51:52.504Z,81.50
2023-05-23T00:54:31.512Z,82.50
2023-05-23T00:56:59.253Z,83.60
2023-05-23T00:59:31.205Z,83.20
2023-05-23T01:02:00.644Z,82.80
2023-05-23T01:04:29.335Z,83.50
2023-05-23T01:06:57.243Z,83.90
2023-05-23T01:09:26.083Z,83.00
2023-05-23T01:12:19.405Z,82.60
2023-05-23T01:14:50.262Z,81.50
2023-05-23T01:17:24.732Z,82.00
2023-05-23T01:22:29.763Z,80.60
2023-05-23T01:25:16.131Z,79.60
2023-05-23T01:27:51.628Z,79.40
2023-05-23T01:30:21.283Z,79.60
2023-05-23T01:32:49.816Z,80.00
2023-05-23T01:35:21.136Z,80.70
2023-05-23T01:37:48.881Z,80.20
2023-05-23T01:40:16.719Z,81.20
2023-05-23T01:42:45.412Z,81.00
2023-05-23T01:45:13.441Z,80.70
2023-05-23T01:47:41.697Z,80.00
2023-05-23T01:50:10.973Z,80.00
2023-05-23T01:52:40.359Z,80.10
2023-05-23T02:06:17.770Z,78.70
2023-05-23T02:09:19.231Z,78.30
2023-05-23T02:12:19.514Z,78.40
2023-05-23T02:14:47.697Z,78.50
2023-05-23T02:17:17.237Z,78.60
2023-05-23T02:19:45.118Z,78.60
2023-05-23T02:22:12.853Z,78.30
2023-05-23T02:33:37.897Z,77.20
2023-05-23T02:36:05.948Z,77.30
2023-05-23T02:38:35.614Z,77.00
2023-05-23T02:41:04.351Z,76.90
2023-05-23T02:43:32.658Z,76.80
2023-05-23T02:46:04.352Z,76.70
2023-05-23T02:51:19.600Z,77.10
2023-05-23T02:54:11.267Z,76.40
2023-05-23T02:56:40.204Z,76.80
2023-05-23T02:59:08.862Z,76.10
2023-05-23T03:01:38.032Z,76.10
2023-05-23T03:06:44.171Z,75.80
2023-05-23T03:09:12.680Z,75.70
2023-05-23T03:11:41.237Z,75.30
2023-05-23T03:14:09.918Z,75.10
2023-05-23T03:16:38.408Z,74.90
2023-05-23T03:19:06.938Z,74.70
2023-05-23T03:21:36.404Z,74.60
2023-05-23T03:24:04.807Z,74.50
2023-05-23T03:26:37.209Z,74.30
2023-05-23T03:29:05.807Z,73.90
2023-05-23T03:31:35.239Z,73.80
2023-05-23T03:34:05.105Z,73.40
2023-05-23T03:36:36.207Z,73.30
2023-05-23T03:39:04.770Z,73.30
2023-05-23T03:41:33.259Z,73.40
2023-05-23T03:44:03.856Z,73.20
2023-05-23T03:49:15.651Z,72.80
2023-05-23T03:51:44.480Z,72.40
2023-05-23T03:54:14.219Z,72.20
2023-05-23T03:56:42.777Z,71.80
2023-05-23T03:59:11.279Z,71.10
2023-05-23T04:01:40.650Z,71.60
2023-05-23T04:04:09.016Z,71.50
2023-05-23T04:06:38.824Z,71.40
2023-05-23T04:09:08.682Z,70.90
2023-05-23T04:11:37.432Z,71.30
2023-05-23T04:14:06.084Z,70.50
2023-05-23T04:16:37.112Z,70.30
2023-05-23T04:19:06.023Z,69.60
2023-05-23T04:21:35.486Z,69.40
2023-05-23T04:24:04.082Z,70.20
2023-05-23T04:26:31.947Z,70.00
2023-05-23T04:28:59.692Z,70.00
2023-05-23T04:31:28.402Z,70.00
2023-05-23T04:33:56.695Z,69.40
2023-05-23T04:36:26.375Z,69.80
2023-05-23T04:38:54.290Z,70.00
2023-05-23T04:41:25.219Z,69.60
2023-05-23T04:43:54.891Z,68.70
2023-05-23T04:46:27.685Z,67.40
2023-05-23T04:49:03.025Z,69.30
2023-05-23T04:51:40.489Z,70.10
2023-05-23T04:54:18.780Z,69.50
2023-05-23T04:56:46.622Z,68.90
2023-05-23T04:59:14.385Z,69.50
2023-05-23T05:01:50.210Z,67.80
2023-05-23T05:04:18.191Z,67.40
2023-05-23T05:06:47.916Z,68.20
2023-05-23T05:09:15.741Z,68.10
2023-05-23T05:15:14.605Z,68.50
2023-05-23T05:17:46.436Z,67.50
2023-05-23T05:20:25.756Z,67.40
2023-05-23T05:23:00.401Z,67.90
2023-05-23T05:25:33.181Z,67.90
2023-05-23T05:28:13.633Z,68.20
2023-05-23T05:30:41.637Z,67.10
2023-05-23T05:33:13.128Z,66.40
2023-05-23T05:35:41.765Z,66.90
2023-05-23T05:38:11.443Z,67.40
2023-05-23T05:40:39.466Z,66.70
2023-05-23T05:43:07.676Z,66.90
2023-05-23T05:45:36.501Z,66.40
2023-05-23T05:48:04.770Z,66.80
2023-05-23T05:50:32.932Z,65.80
2023-05-23T05:53:00.645Z,66.40
2023-05-23T05:55:29.254Z,67.50
2023-05-23T05:57:57.125Z,65.30
2023-05-23T06:00:25.632Z,66.20
2023-05-23T06:02:58.413Z,64.70
2023-05-23T06:05:27.166Z,64.90
2023-05-23T06:07:54.865Z,65.30
2023-05-23T06:10:22.591Z,64.60
2023-05-23T06:12:50.726Z,66.10
2023-05-23T06:15:19.585Z,66.40
2023-05-23T06:17:47.408Z,65.90
2023-05-23T06:20:15.233Z,64.40
2023-05-23T06:25:24.570Z,65.40
2023-05-23T06:27:57.748Z,64.60
2023-05-23T06:30:25.933Z,64.30
2023-05-23T06:32:54.489Z,65.70
2023-05-23T06:35:24.185Z,66.40
2023-05-23T06:38:01.522Z,65.90
2023-05-23T06:40:29.464Z,65.40
2023-05-23T06:43:03.648Z,65.00
2023-05-23T06:45:31.895Z,66.30
2023-05-23T06:48:02.985Z,65.80
2023-05-23T06:50:44.126Z,65.50
2023-05-23T06:55:51.692Z,63.40
2023-05-23T06:58:19.567Z,62.80
2023-05-23T07:00:48.762Z,63.50
2023-05-23T07:03:17.246Z,63.90
2023-05-23T07:05:45.229Z,64.50
2023-05-23T07:08:13.581Z,64.40
2023-05-23T07:10:44.424Z,64.90
2023-05-23T07:13:12.877Z,65.00
2023-05-23T07:15:40.726Z,64.10
2023-05-23T07:18:11.200Z,63.60
2023-05-23T07:20:39.435Z,64.60
2023-05-23T07:23:08.079Z,64.40
2023-05-23T07:25:38.925Z,64.20
2023-05-23T07:28:08.178Z,64.20
2023-05-23T07:30:36.325Z,64.30
2023-05-23T07:33:04.346Z,63.50
2023-05-23T07:35:32.357Z,63.10
2023-05-23T07:38:00.331Z,63.10
2023-05-23T07:40:28.334Z,63.50
2023-05-23T07:42:56.561Z,62.30
2023-05-23T07:45:24.459Z,63.00
2023-05-23T07:47:59.764Z,63.00
2023-05-23T07:53:18.359Z,61.60
2023-05-23T07:55:46.711Z,64.50
2023-05-23T07:58:15.330Z,64.60
2023-05-23T08:03:13.452Z,62.20
2023-05-23T08:05:50.117Z,62.60
2023-05-23T08:10:50.550Z,63.20
2023-05-23T08:13:18.756Z,61.70
2023-05-23T08:15:46.636Z,62.20
2023-05-23T08:18:14.852Z,61.90
2023-05-23T08:20:43.174Z,62.30
2023-05-23T08:23:12.943Z,61.30
2023-05-23T08:25:44.146Z,63.20
2023-05-23T08:28:11.873Z,59.00
2023-05-23T08:30:39.680Z,60.90
2023-05-23T08:33:07.701Z,59.00
2023-05-23T08:35:37.796Z,60.30
2023-05-23T08:38:08.013Z,61.20
2023-05-23T08:43:17.949Z,60.30
2023-05-23T08:45:47.391Z,60.30
2023-05-23T08:48:18.420Z,60.30
2023-05-23T08:53:21.937Z,61.90
2023-05-23T08:55:51.930Z,60.50
2023-05-23T09:01:04.532Z,59.50
2023-05-23T09:03:33.649Z,60.70
2023-05-23T09:06:01.630Z,58.50
2023-05-23T09:08:39.997Z,59.70
2023-05-23T09:11:09.798Z,59.80
2023-05-23T09:13:37.833Z,60.40
2023-05-23T09:18:50.226Z,62.60
2023-05-23T09:21:18.908Z,60.10
2023-05-23T09:26:14.649Z,62.50
2023-05-23T09:28:43.392Z,62.40
2023-05-23T09:31:11.391Z,59.20
2023-05-23T09:33:49.100Z,60.40
2023-05-23T09:36:17.373Z,62.40
2023-05-23T09:38:47.412Z,61.60
2023-05-23T09:41:15.527Z,60.70
2023-05-23T09:43:53.138Z,60.90
2023-05-23T09:46:21.865Z,61.90
2023-05-23T09:48:54.305Z,62.10
2023-05-23T09:51:25.988Z,63.00
2023-05-23T09:53:54.294Z,61.70
2023-05-23T09:56:25.260Z,62.50
2023-05-23T09:58:55.743Z,62.40
2023-05-23T10:01:24.024Z,61.70
2023-05-23T10:03:58.023Z,61.20
2023-05-23T10:06:52.634Z,62.20
2023-05-23T10:09:22.380Z,61.70
2023-05-23T10:12:18.763Z,61.30
2023-05-23T10:14:49.808Z,60.80
2023-05-23T10:17:22.805Z,60.50
2023-05-23T10:19:54.548Z,60.20
2023-05-23T10:22:22.502Z,60.50
2023-05-23T10:24:50.315Z,60.70
2023-05-23T10:27:18.089Z,62.10
2023-05-23T10:29:46.000Z,61.00
2023-05-23T10:32:15.406Z,61.30
2023-05-23T10:34:43.982Z,61.30
2023-05-23T10:37:16.395Z,61.30
2023-05-23T10:39:55.787Z,61.30
2023-05-23T10:42:34.562Z,61.10
2023-05-23T10:45:21.905Z,60.80
2023-05-23T10:47:50.359Z,60.90
2023-05-23T10:50:34.283Z,61.70
2023-05-23T10:53:04.205Z,60.00
2023-05-23T10:55:34.986Z,61.30
2023-05-23T10:58:29.043Z,61.80
2023-05-23T11:00:58.375Z,61.70
2023-05-23T11:03:34.241Z,61.50
2023-05-23T11:06:03.091Z,63.10
2023-05-23T11:08:47.051Z,62.50
2023-05-23T11:11:16.059Z,63.00
2023-05-23T11:14:03.169Z,63.50
2023-05-23T11:16:41.881Z,64.40
2023-05-23T11:19:19.148Z,64.10
2023-05-23T11:21:47.956Z,64.30
2023-05-23T11:24:16.737Z,64.90
2023-05-23T11:27:02.205Z,65.30
2023-05-23T11:29:31.141Z,65.40
2023-05-23T11:31:58.919Z,65.70
2023-05-23T11:34:28.496Z,65.90
2023-05-23T11:36:57.442Z,66.20
2023-05-23T11:39:26.187Z,66.20
2023-05-23T11:42:03.426Z,66.70
2023-05-23T11:44:32.067Z,66.80
2023-05-23T11:47:08.003Z,67.40
2023-05-23T11:49:36.859Z,67.10
2023-05-23T11:52:05.880Z,67.70
2023-05-23T11:54:34.004Z,67.40
2023-05-23T11:57:03.656Z,68.10
2023-05-23T11:59:32.639Z,68.20
2023-05-23T12:02:00.670Z,68.20
2023-05-23T12:04:29.584Z,68.60
2023-05-23T12:06:57.417Z,70.00
2023-05-23T12:09:26.879Z,70.40
2023-05-23T12:11:55.390Z,69.50
2023-05-23T12:14:23.217Z,71.10
2023-05-23T12:16:53.270Z,70.70
2023-05-23T12:19:22.355Z,72.00
2023-05-23T12:21:50.373Z,71.80
2023-05-23T12:24:20.303Z,72.70
2023-05-23T12:26:55.507Z,74.10
2023-05-23T12:29:28.803Z,74.20
2023-05-23T12:31:59.005Z,74.60
2023-05-23T12:34:26.747Z,76.80
2023-05-23T12:37:10.531Z,75.10
2023-05-23T12:39:46.424Z,76.60
2023-05-23T12:42:14.210Z,76.50
2023-05-23T12:44:42.566Z,82.10
2023-05-23T12:47:11.124Z,77.30
2023-05-23T12:49:39.089Z,78.10
2023-05-23T12:52:07.821Z,80.10
2023-05-23T12:54:35.841Z,80.30
2023-05-23T12:57:04.483Z,81.90
2023-05-23T12:59:32.295Z,82.10
2023-05-23T13:02:01.746Z,82.10
2023-05-23T13:04:32.155Z,81.90
2023-05-23T13:07:01.221Z,82.00
2023-05-23T13:09:28.959Z,81.50
2023-05-23T13:11:56.807Z,83.20
2023-05-23T13:14:25.512Z,81.40
2023-05-23T13:16:54.156Z,79.90
2023-05-23T13:19:21.875Z,80.80
2023-05-23T13:21:50.480Z,81.10
2023-05-23T13:24:19.178Z,79.90
2023-05-23T13:26:46.993Z,81.30
2023-05-23T13:29:14.706Z,81.30
2023-05-23T13:31:42.496Z,82.30
2023-05-23T13:34:10.290Z,81.80
2023-05-23T13:36:37.970Z,80.60
2023-05-23T13:39:05.695Z,81.10
2023-05-23T13:41:34.373Z,79.10
2023-05-23T13:44:02.056Z,81.60
2023-05-23T13:46:29.773Z,81.10
2023-05-23T13:48:57.481Z,78.70
2023-05-23T13:51:25.189Z,79.10
2023-05-23T13:53:52.917Z,80.20
2023-05-23T13:56:20.641Z,80.00
2023-05-23T13:58:49.196Z,79.60
2023-05-23T14:01:18.665Z,78.80
2023-05-23T14:03:46.685Z,81.00
2023-05-23T14:06:15.185Z,78.60
2023-05-23T14:08:43.420Z,78.50
2023-05-23T14:11:11.660Z,79.00
2023-05-23T14:13:43.255Z,81.80
2023-05-23T14:16:13.212Z,79.20
2023-05-23T14:18:41.026Z,79.60
2023-05-23T14:21:08.729Z,78.50
2023-05-23T14:23:36.401Z,78.80
2023-05-23T14:26:04.295Z,78.40
2023-05-23T14:28:32.963Z,78.80
2023-05-23T14:31:01.712Z,78.30
2023-05-23T14:33:30.455Z,78.10
2023-05-23T14:36:03.855Z,78.30
2023-05-23T14:38:32.885Z,78.70
2023-05-23T14:41:02.012Z,79.00
2023-05-23T14:43:29.662Z,80.60
2023-05-23T14:45:57.583Z,81.40
2023-05-23T14:48:25.275Z,81.10
2023-05-23T14:50:53.168Z,81.90
2023-05-23T14:53:25.273Z,79.80
2023-05-23T14:55:53.905Z,79.30
2023-05-23T14:58:25.938Z,81.20
2023-05-23T15:00:54.427Z,80.00
2023-05-23T15:03:24.687Z,79.50
2023-05-23T15:05:52.408Z,79.20
2023-05-23T15:08:20.073Z,80.60
2023-05-23T15:10:47.908Z,79.50
2023-05-23T15:13:15.621Z,79.80
2023-05-23T15:15:44.124Z,80.90
2023-05-23T15:18:21.359Z,81.50
2023-05-23T15:20:55.836Z,81.80
2023-05-23T15:23:24.404Z,82.10
2023-05-23T15:25:52.271Z,81.80
2023-05-23T15:28:20.967Z,82.10
2023-05-23T15:30:50.717Z,82.50
2023-05-23T15:33:18.424Z,83.40
2023-05-23T15:38:39.191Z,82.50
2023-05-23T15:41:10.203Z,82.30
2023-05-23T15:43:40.044Z,82.30
2023-05-23T15:46:07.818Z,82.30
2023-05-23T15:48:36.373Z,82.80
2023-05-23T15:51:04.181Z,82.20
2023-05-23T15:53:37.025Z,82.40
2023-05-23T15:56:10.755Z,83.20
2023-05-23T15:58:38.460Z,83.30
2023-05-23T16:01:09.304Z,83.40
2023-05-23T16:03:56.639Z,83.90
2023-05-23T16:06:44.675Z,84.00
2023-05-23T16:12:00.742Z,84.10
2023-05-23T16:14:30.602Z,84.20
2023-05-23T16:16:59.225Z,84.00
2023-05-23T16:19:27.026Z,83.40
2023-05-23T16:21:54.901Z,82.50
2023-05-23T16:24:24.212Z,83.50
2023-05-23T16:26:52.716Z,83.30
2023-05-23T16:29:20.493Z,83.20
2023-05-23T16:31:48.341Z,81.90
2023-05-23T16:34:16.220Z,81.70
2023-05-23T16:36:44.846Z,82.10
2023-05-23T16:39:12.507Z,83.30
2023-05-23T16:41:40.167Z,83.80
2023-05-23T16:44:07.994Z,84.00
2023-05-23T16:46:36.665Z,83.40
2023-05-23T16:49:04.739Z,83.30
2023-05-23T16:51:32.580Z,84.20
2023-05-23T16:54:00.283Z,81.40
2023-05-23T16:56:28.998Z,81.90
2023-05-23T16:58:57.573Z,82.00
2023-05-23T17:01:26.306Z,83.00
2023-05-23T17:03:54.116Z,82.60
2023-05-23T17:06:21.926Z,80.70
2023-05-23T17:08:49.697Z,82.70
2023-05-23T17:11:18.986Z,84.40
2023-05-23T17:13:47.018Z,84.20
2023-05-23T17:16:19.455Z,84.50
2023-05-23T17:18:48.666Z,84.20
2023-05-23T17:21:16.365Z,83.90
2023-05-23T17:23:44.978Z,84.40
2023-05-23T17:26:13.504Z,84.50
2023-05-23T17:28:41.204Z,84.30
2023-05-23T17:31:15.013Z,85.10
2023-05-23T17:33:44.136Z,84.70
2023-05-23T17:36:14.449Z,84.70
2023-05-23T17:38:44.100Z,85.00
2023-05-23T17:41:11.839Z,85.30
2023-05-23T17:43:39.613Z,86.20
2023-05-23T17:46:07.449Z,85.60
2023-05-23T17:48:46.917Z,85.60
2023-05-23T17:51:16.304Z,85.70
2023-05-23T17:53:44.182Z,85.80
2023-05-23T17:56:11.984Z,85.20
2023-05-23T17:58:41.827Z,86.10
2023-05-23T18:01:14.910Z,86.00
2023-05-23T18:03:44.578Z,85.00
2023-05-23T18:06:13.232Z,85.00
2023-05-23T18:08:41.817Z,85.10
2023-05-23T18:11:10.489Z,84.40
2023-05-23T18:13:38.246Z,83.60
2023-05-23T18:16:06.315Z,83.60
2023-05-23T18:18:34.036Z,83.00
2023-05-23T18:21:02.268Z,82.30
2023-05-23T18:23:30.870Z,82.70
2023-05-23T18:25:58.747Z,83.30
2023-05-23T18:28:26.751Z,83.80
2023-05-23T18:30:55.333Z,84.00
2023-05-23T18:33:24.025Z,83.90
2023-05-23T18:35:52.707Z,84.40
2023-05-23T18:38:21.537Z,84.60
2023-05-23T18:40:50.181Z,84.40
2023-05-23T18:43:17.956Z,83.50
2023-05-23T18:45:45.870Z,83.20
2023-05-23T18:48:17.964Z,84.50
2023-05-23T18:50:47.393Z,84.90
2023-05-23T18:53:20.480Z,84.60
2023-05-23T18:55:49.665Z,84.60
2023-05-23T18:58:18.227Z,85.80
2023-05-23T19:00:46.017Z,85.30
2023-05-23T19:03:15.754Z,84.80
2023-05-23T19:05:44.458Z,84.20
2023-05-23T19:08:13.017Z,85.60
2023-05-23T19:10:43.115Z,84.20
2023-05-23T19:13:15.007Z,85.30
2023-05-23T19:15:42.796Z,84.70
2023-05-23T19:18:10.779Z,84.90
2023-05-23T19:20:38.898Z,85.10
2023-05-23T19:23:06.672Z,85.20
2023-05-23T19:25:35.324Z,83.70
2023-05-23T19:28:03.055Z,85.30
2023-05-23T19:30:30.943Z,85.30
2023-05-23T19:33:02.524Z,85.70
2023-05-23T19:35:30.639Z,85.50
2023-05-23T19:37:59.310Z,85.80
2023-05-23T19:40:27.010Z,86.20
2023-05-23T19:42:54.757Z,86.40
2023-05-23T19:45:22.550Z,86.40
2023-05-23T19:47:50.309Z,86.40
2023-05-23T19:50:18.340Z,86.70
2023-05-23T19:52:46.154Z,86.70
2023-05-23T19:55:15.472Z,87.20
2023-05-23T19:57:43.173Z,86.90
2023-05-23T20:00:12.116Z,86.50
2023-05-23T20:02:40.677Z,85.80
2023-05-23T20:05:08.767Z,86.70
2023-05-23T20:07:36.894Z,87.20
2023-05-23T20:10:04.808Z,87.10
2023-05-23T20:12:33.470Z,87.00
2023-05-23T20:15:01.189Z,88.40
2023-05-23T20:17:30.200Z,87.30
2023-05-23T20:19:58.109Z,85.80
2023-05-23T20:22:28.304Z,86.80
2023-05-23T20:24:59.552Z,86.40
2023-05-23T20:27:28.587Z,85.90
2023-05-23T20:29:56.304Z,87.60
2023-05-23T20:32:24.111Z,87.70
2023-05-23T20:34:52.314Z,86.50
2023-05-23T20:37:20.028Z,86.20
2023-05-23T20:39:48.925Z,87.30
2023-05-23T20:42:16.892Z,86.80
2023-05-23T20:44:45.099Z,86.50
2023-05-23T20:47:13.710Z,86.70
2023-05-23T20:49:42.639Z,87.90
2023-05-23T20:52:11.653Z,87.20
2023-05-23T20:54:40.283Z,86.40
2023-05-23T20:57:08.010Z,87.10
2023-05-23T20:59:35.736Z,86.00
2023-05-23T21:02:04.479Z,86.80
2023-05-23T21:04:32.562Z,88.10
2023-05-23T21:07:02.520Z,88.40
2023-05-23T21:09:30.275Z,89.40
2023-05-23T21:11:58.976Z,89.20
2023-05-23T21:14:27.450Z,89.60
2023-05-23T21:16:55.206Z,89.40
2023-05-23T21:19:23.001Z,89.90
2023-05-23T21:21:53.425Z,90.30
2023-05-23T21:24:21.107Z,90.00
2023-05-23T21:26:49.011Z,90.30
2023-05-23T21:29:16.725Z,90.10
2023-05-23T21:31:44.572Z,90.40
2023-05-23T21:39:50.551Z,90.10
2023-05-23T21:42:19.471Z,90.10
2023-05-23T21:44:48.112Z,89.40
2023-05-23T21:47:16.739Z,89.60
2023-05-23T21:49:44.550Z,89.20
2023-05-23T21:52:13.169Z,89.40
2023-05-23T21:54:40.979Z,90.10
2023-05-23T21:57:08.731Z,90.40
2023-05-23T21:59:36.440Z,90.30
2023-05-23T22:02:04.334Z,90.10
2023-05-23T22:04:33.117Z,90.20
2023-05-23T22:07:00.825Z,89.60
2023-05-23T22:09:28.865Z,90.10
2023-05-23T22:11:56.924Z,90.00
2023-05-23T22:14:24.604Z,89.20
2023-05-23T22:16:53.708Z,90.40
2023-05-23T22:19:27.454Z,90.10
2023-05-23T22:21:55.274Z,90.00
2023-05-23T22:24:23.092Z,89.70
2023-05-23T22:26:50.848Z,90.40
2023-05-23T22:29:18.514Z,90.60
2023-05-23T22:31:47.317Z,90.40
2023-05-23T22:34:15.543Z,89.80
2023-05-23T22:36:43.290Z,89.60
2023-05-23T22:39:11.080Z,89.90
2023-05-23T22:41:44.123Z,88.80
2023-05-23T22:44:13.663Z,89.20
2023-05-23T22:46:44.051Z,88.30
2023-05-23T22:49:12.587Z,88.80
2023-05-23T22:51:40.406Z,89.30
2023-05-23T22:54:08.264Z,88.90
2023-05-23T22:56:36.015Z,89.40
2023-05-23T22:59:03.753Z,88.20
2023-05-23T23:01:32.216Z,88.00
2023-05-23T23:04:00.007Z,86.70
2023-05-23T23:06:28.590Z,88.00
2023-05-23T23:08:56.376Z,89.20
2023-05-23T23:11:25.033Z,89.60
2023-05-23T23:13:52.704Z,88.70
2023-05-23T23:16:22.252Z,87.70
2023-05-23T23:18:50.434Z,88.00
2023-05-23T23:21:18.161Z,87.80
2023-05-23T23:23:45.911Z,88.60
2023-05-23T23:26:14.631Z,88.10
2023-05-23T23:28:43.266Z,89.80
2023-05-23T23:31:11.850Z,88.10
2023-05-23T23:33:40.251Z,88.80
2023-05-23T23:36:08.077Z,89.60
2023-05-23T23:38:36.930Z,90.00
2023-05-23T23:41:04.605Z,89.20
2023-05-23T23:43:32.350Z,89.00
2023-05-23T23:46:02.995Z,88.60
2023-05-23T23:48:30.727Z,88.00
2023-05-23T23:50:58.466Z,89.00
2023-05-23T23:53:26.851Z,89.70
2023-05-23T23:55:54.632Z,90.00
2023-05-23T23:58:22.273Z,89.60
